Hardyville, Virginia
Current Conditions -  °F | °C
As of 3:55 AM on Sunday 26 Oct 2014 (Local Time) from KW75 Reporting Station
Clear Clear  
Wind Chill: 56°   Ceiling: Unl
Heat Index: 56°   Visibility: 10mi
Dew Point: 46°   Wind: 6mph
Humidity: 69%   Direction: 270°W
Pressure: 29.71"   Gusts: NA
Location:  37.56°N, 76.37°W
Report Text: KW75 260755Z AUTO 27005KT 10SM CLR 14/08 A2971 RMK AO1 T01360080
Loading
Personal Weather Stations






























Interactive Weather Map
Tropical Storm Tracking
New forecast layout! Learn more

10-Day Weather Forecast

Advertisements
Track Severe Weather on mobile